Airport ICAO


21:57 UTC

8°C

Clear skies


An affordable passengers' Moving Map for your aircraft. Made for the iPad and the iPhone
More information here

LFPB Le Bourget


Paris FRANCE   VFR CAVOK


METAR LFPB 132130Z AUTO 11002KT CAVOK 08/06 Q1029 TEMPO 21010KT BECMG 3000 BR 0h27min

TAF LFPB 131700Z 1318/1418 21010KT CAVOK TX13/1415Z TN05/1406Z BECMG 1323/1401 12004KT 3000 BR BECMG 1402/1404 1500 BR BKN002 PROB40 1402/1410 0500 FG VV/// BECMG 1411/1413 6000 NSW BKN007 BECMG 1413/1415 SCT012 4h57min





NOTAMS

OPEN